Aydlett, North Carolina
Current Conditions -  °F | °C
As of 10:54 AM on Friday 21 Nov 2014 (Local Time) from KECG Reporting Station
Clear Clear  
Wind Chill: 40°   Ceiling: Unl
Heat Index: 46°   Visibility: 10mi
Dew Point: 16°   Wind: 14mph
Humidity: 30%   Direction: 340°NNW
Pressure: 30.42"   Gusts: NA
Location:  36.33°N, 75.91°W
Report Text: KECG 211554Z 34012KT 10SM CLR 08/M09 A3042 RMK AO2 SLP300 T00781089
Loading
Personal Weather Stations






























Interactive Weather Map New forecast layout! Learn more

10-Day Weather Forecast

Advertisements
Track Severe Weather on mobile